PWSweather.com
Personal Weather Stations
Station Observations
PICKERING
North Yorkshire, PickeringGB

North YorkshirePickeringGB

Lat: 54.2494, Lon: -0.7725

Elevation: 192

Station Type: Oregon Scientific WMR100

http://www.yorkshirewalker.co.uk/weather/

High Low Average
Temperature 51.3°F10.7°C 43.2°F6.2°C 46.9°F8.3°C
Dew Point 46.4°F8.0°C 37.4°F3.0°C 41.3°F5.2°C
Winds 11.1 mph 17.9 kmh 0.9 mph 1.4 kmh 6.0 mph WSW9.7 kmh WSW
Wind Gusts 17.7 mph28.5 kmh 1.3 mph2.1 kmh 9.0 mph14.5 kmh
Humidity 85% 72% 79%
Pressure 30.01 in1016.3 mb 29.65 in1004.1 mb -
Precipitation 0.06 in1.5 mm - -
Hour Temp Dew Point Humidity Winds Wind Gusts Pressure Precip Precip Rate Daily Precip Total
12:00 AM 43.2°F6.2°C 37.4°F3.0°C 81% 3.1 mph WSW5.0 kmh WSW 4.9 mph7.9 kmh 30.01 in1016.3 mb 0.00 in0.0 mm 0.00 in0.0 mm 0.00 in0.0 mm
12:05 AM 43.3°F6.3°C 37.4°F3.0°C 81% 2.1 mph WSW3.4 kmh WSW 4.5 mph7.2 kmh 30.01 in1016.3 mb 0.00 in0.0 mm 0.00 in0.0 mm 0.00 in0.0 mm
12:10 AM 43.2°F6.2°C 37.4°F3.0°C 81% 1.0 mph WSW1.6 kmh WSW 2.7 mph4.3 kmh 30.01 in1016.3 mb 0.00 in0.0 mm 0.00 in0.0 mm 0.00 in0.0 mm
12:15 AM 43.2°F6.2°C 37.4°F3.0°C 81% 1.2 mph SW1.9 kmh SW 3.1 mph5.0 kmh 30.01 in1016.3 mb 0.00 in0.0 mm 0.00 in0.0 mm 0.00 in0.0 mm
12:20 AM 43.3°F6.3°C 37.4°F3.0°C 81% 2.5 mph WSW4.0 kmh WSW 4.3 mph6.9 kmh 30.01 in1016.3 mb 0.00 in0.0 mm 0.00 in0.0 mm 0.00 in0.0 mm
12:25 AM 43.5°F6.4°C 37.4°F3.0°C 80% 3.9 mph WSW6.3 kmh WSW 6.3 mph10.1 kmh 30.01 in1016.3 mb 0.00 in0.0 mm 0.00 in0.0 mm 0.00 in0.0 mm
12:30 AM 43.7°F6.5°C 39.2°F4.0°C 80% 2.9 mph WSW4.7 kmh WSW 6.3 mph10.1 kmh 30.01 in1016.3 mb 0.00 in0.0 mm 0.00 in0.0 mm 0.00 in0.0 mm
12:35 AM 43.9°F6.6°C 39.2°F4.0°C 80% 2.0 mph SW3.2 kmh SW 4.7 mph7.6 kmh 29.98 in1015.2 mb 0.00 in0.0 mm 0.00 in0.0 mm 0.00 in0.0 mm
12:40 AM 43.9°F6.6°C 39.2°F4.0°C 80% 2.2 mph WSW3.5 kmh WSW 4.7 mph7.6 kmh 29.98 in1015.2 mb 0.00 in0.0 mm 0.00 in0.0 mm 0.00 in0.0 mm
12:45 AM 44.1°F6.7°C 39.2°F4.0°C 80% 2.8 mph WSW4.5 kmh WSW 6.3 mph10.1 kmh 29.98 in1015.2 mb 0.00 in0.0 mm 0.00 in0.0 mm 0.00 in0.0 mm
12:50 AM 44.2°F6.8°C 39.2°F4.0°C 80% 3.0 mph WSW4.8 kmh WSW 6.3 mph10.1 kmh 29.98 in1015.2 mb 0.00 in0.0 mm 0.00 in0.0 mm 0.00 in0.0 mm
12:55 AM 44.6°F7.0°C 39.2°F4.0°C 80% 2.8 mph WSW4.5 kmh WSW 5.6 mph9.0 kmh 29.98 in1015.2 mb 0.00 in0.0 mm 0.00 in0.0 mm 0.00 in0.0 mm
01:00 AM 44.6°F7.0°C 39.2°F4.0°C 80% 2.7 mph WSW4.3 kmh WSW 5.6 mph9.0 kmh 29.98 in1015.2 mb 0.00 in0.0 mm 0.00 in0.0 mm 0.00 in0.0 mm
01:05 AM 44.6°F7.0°C 39.2°F4.0°C 80% 2.6 mph WSW4.2 kmh WSW 5.6 mph9.0 kmh 29.98 in1015.2 mb 0.00 in0.0 mm 0.00 in0.0 mm 0.00 in0.0 mm
01:10 AM 44.6°F7.0°C 39.2°F4.0°C 80% 2.4 mph WSW3.9 kmh WSW 4.0 mph6.4 kmh 29.98 in1015.2 mb 0.00 in0.0 mm 0.00 in0.0 mm 0.00 in0.0 mm
01:15 AM 44.8°F7.1°C 39.2°F4.0°C 80% 2.9 mph WSW4.7 kmh WSW 5.8 mph9.3 kmh 29.98 in1015.2 mb 0.00 in0.0 mm 0.00 in0.0 mm 0.00 in0.0 mm
01:20 AM 45.0°F7.2°C 39.2°F4.0°C 80% 4.0 mph WSW6.4 kmh WSW 8.1 mph13.0 kmh 29.98 in1015.2 mb 0.00 in0.0 mm 0.00 in0.0 mm 0.00 in0.0 mm
01:25 AM 45.3°F7.4°C 39.2°F4.0°C 80% 5.3 mph WSW8.5 kmh WSW 8.1 mph13.0 kmh 29.98 in1015.2 mb 0.00 in0.0 mm 0.00 in0.0 mm 0.00 in0.0 mm
01:30 AM 45.3°F7.4°C 39.2°F4.0°C 80% 5.1 mph WSW8.2 kmh WSW 8.5 mph13.7 kmh 29.98 in1015.2 mb 0.00 in0.0 mm 0.00 in0.0 mm 0.00 in0.0 mm
01:35 AM 45.5°F7.5°C 41.0°F5.0°C 80% 4.3 mph WSW6.9 kmh WSW 8.5 mph13.7 kmh 29.95 in1014.2 mb 0.00 in0.0 mm 0.00 in0.0 mm 0.00 in0.0 mm
01:40 AM 45.9°F7.7°C 41.0°F5.0°C 80% 4.2 mph WSW6.8 kmh WSW 6.3 mph10.1 kmh 29.95 in1014.2 mb 0.00 in0.0 mm 0.00 in0.0 mm 0.00 in0.0 mm
01:45 AM 45.9°F7.7°C 39.2°F4.0°C 79% 4.5 mph WSW7.2 kmh WSW 6.5 mph10.5 kmh 29.95 in1014.2 mb 0.00 in0.0 mm 0.00 in0.0 mm 0.00 in0.0 mm
01:50 AM 45.9°F7.7°C 39.2°F4.0°C 79% 4.1 mph WSW6.6 kmh WSW 6.5 mph10.5 kmh 29.95 in1014.2 mb 0.00 in0.0 mm 0.00 in0.0 mm 0.00 in0.0 mm
01:55 AM 45.9°F7.7°C 39.2°F4.0°C 79% 3.8 mph WSW6.1 kmh WSW 5.8 mph9.3 kmh 29.95 in1014.2 mb 0.00 in0.0 mm 0.00 in0.0 mm 0.00 in0.0 mm
02:00 AM 45.7°F7.6°C 39.2°F4.0°C 79% 3.6 mph WSW5.8 kmh WSW 5.4 mph8.7 kmh 29.95 in1014.2 mb 0.00 in0.0 mm 0.00 in0.0 mm 0.00 in0.0 mm
02:05 AM 45.7°F7.6°C 39.2°F4.0°C 79% 3.1 mph WSW5.0 kmh WSW 5.4 mph8.7 kmh 29.95 in1014.2 mb 0.00 in0.0 mm 0.00 in0.0 mm 0.00 in0.0 mm
02:10 AM 45.9°F7.7°C 39.2°F4.0°C 79% 4.3 mph WSW6.9 kmh WSW 7.4 mph11.9 kmh 29.95 in1014.2 mb 0.00 in0.0 mm 0.00 in0.0 mm 0.00 in0.0 mm
02:15 AM 45.9°F7.7°C 39.2°F4.0°C 79% 5.2 mph WSW8.4 kmh WSW 7.4 mph11.9 kmh 29.95 in1014.2 mb 0.00 in0.0 mm 0.00 in0.0 mm 0.00 in0.0 mm
02:20 AM 45.9°F7.7°C 39.2°F4.0°C 79% 4.3 mph WSW6.9 kmh WSW 7.4 mph11.9 kmh 29.95 in1014.2 mb 0.00 in0.0 mm 0.00 in0.0 mm 0.00 in0.0 mm
02:25 AM 46.0°F7.8°C 39.2°F4.0°C 79% 4.4 mph WSW7.1 kmh WSW 7.6 mph12.2 kmh 29.95 in1014.2 mb 0.00 in0.0 mm 0.00 in0.0 mm 0.00 in0.0 mm
02:30 AM 46.0°F7.8°C 39.2°F4.0°C 79% 5.4 mph WSW8.7 kmh WSW 7.8 mph12.6 kmh 29.95 in1014.2 mb 0.00 in0.0 mm 0.00 in0.0 mm 0.00 in0.0 mm
02:35 AM 46.0°F7.8°C 39.2°F4.0°C 79% 6.3 mph WSW10.1 kmh WSW 10.1 mph16.3 kmh 29.92 in1013.2 mb 0.00 in0.0 mm 0.00 in0.0 mm 0.00 in0.0 mm
02:40 AM 46.0°F7.8°C 39.2°F4.0°C 79% 6.1 mph WSW9.8 kmh WSW 10.1 mph16.3 kmh 29.92 in1013.2 mb 0.00 in0.0 mm 0.00 in0.0 mm 0.00 in0.0 mm
02:45 AM 46.0°F7.8°C 41.0°F5.0°C 80% 5.3 mph WSW8.5 kmh WSW 8.5 mph13.7 kmh 29.92 in1013.2 mb 0.00 in0.0 mm 0.00 in0.0 mm 0.00 in0.0 mm
02:50 AM 46.0°F7.8°C 41.0°F5.0°C 80% 5.6 mph WSW9.0 kmh WSW 8.5 mph13.7 kmh 29.92 in1013.2 mb 0.00 in0.0 mm 0.00 in0.0 mm 0.00 in0.0 mm
02:55 AM 46.2°F7.9°C 41.0°F5.0°C 80% 6.7 mph WSW10.8 kmh WSW 11.0 mph17.7 kmh 29.92 in1013.2 mb 0.00 in0.0 mm 0.00 in0.0 mm 0.00 in0.0 mm
03:00 AM 46.0°F7.8°C 41.0°F5.0°C 80% 6.1 mph WSW9.8 kmh WSW 11.0 mph17.7 kmh 29.92 in1013.2 mb 0.00 in0.0 mm 0.00 in0.0 mm 0.00 in0.0 mm
03:05 AM 46.0°F7.8°C 41.0°F5.0°C 80% 5.2 mph WSW8.4 kmh WSW 8.1 mph13.0 kmh 29.92 in1013.2 mb 0.00 in0.0 mm 0.00 in0.0 mm 0.00 in0.0 mm
03:10 AM 46.0°F7.8°C 41.0°F5.0°C 80% 5.9 mph WSW9.5 kmh WSW 8.5 mph13.7 kmh 29.92 in1013.2 mb 0.00 in0.0 mm 0.00 in0.0 mm 0.00 in0.0 mm
03:15 AM 46.0°F7.8°C 41.0°F5.0°C 80% 5.3 mph WSW8.5 kmh WSW 8.5 mph13.7 kmh 29.92 in1013.2 mb 0.00 in0.0 mm 0.00 in0.0 mm 0.00 in0.0 mm
03:20 AM 46.0°F7.8°C 41.0°F5.0°C 80% 4.4 mph WSW7.1 kmh WSW 7.8 mph12.6 kmh 29.92 in1013.2 mb 0.00 in0.0 mm 0.00 in0.0 mm 0.00 in0.0 mm
03:25 AM 45.9°F7.7°C 41.0°F5.0°C 80% 3.6 mph WSW5.8 kmh WSW 6.7 mph10.8 kmh 29.92 in1013.2 mb 0.00 in0.0 mm 0.00 in0.0 mm 0.00 in0.0 mm
03:30 AM 46.0°F7.8°C 41.0°F5.0°C 80% 3.1 mph SW5.0 kmh SW 6.0 mph9.7 kmh 29.92 in1013.2 mb 0.00 in0.0 mm 0.00 in0.0 mm 0.00 in0.0 mm
03:35 AM 45.9°F7.7°C 41.0°F5.0°C 80% 3.4 mph WSW5.5 kmh WSW 5.8 mph9.3 kmh 29.89 in1012.2 mb 0.00 in0.0 mm 0.00 in0.0 mm 0.00 in0.0 mm
03:40 AM 46.0°F7.8°C 41.0°F5.0°C 80% 4.2 mph SW6.8 kmh SW 6.5 mph10.5 kmh 29.89 in1012.2 mb 0.00 in0.0 mm 0.00 in0.0 mm 0.00 in0.0 mm
03:45 AM 46.0°F7.8°C 41.0°F5.0°C 81% 3.9 mph SW6.3 kmh SW 6.5 mph10.5 kmh 29.89 in1012.2 mb 0.00 in0.0 mm 0.00 in0.0 mm 0.00 in0.0 mm
03:50 AM 46.0°F7.8°C 41.0°F5.0°C 81% 3.2 mph WSW5.1 kmh WSW 7.4 mph11.9 kmh 29.89 in1012.2 mb 0.00 in0.0 mm 0.00 in0.0 mm 0.00 in0.0 mm
03:55 AM 46.0°F7.8°C 41.0°F5.0°C 81% 3.1 mph SW5.0 kmh SW 7.4 mph11.9 kmh 29.89 in1012.2 mb 0.00 in0.0 mm 0.00 in0.0 mm 0.00 in0.0 mm
04:00 AM 46.0°F7.8°C 41.0°F5.0°C 81% 2.4 mph SW3.9 kmh SW 3.6 mph5.8 kmh 29.89 in1012.2 mb 0.00 in0.0 mm 0.00 in0.0 mm 0.00 in0.0 mm
04:05 AM 46.0°F7.8°C 41.0°F5.0°C 81% 2.5 mph SW4.0 kmh SW 3.4 mph5.5 kmh 29.89 in1012.2 mb 0.00 in0.0 mm 0.00 in0.0 mm 0.00 in0.0 mm
04:10 AM 46.0°F7.8°C 41.0°F5.0°C 81% 2.9 mph SW4.7 kmh SW 3.4 mph5.5 kmh 29.89 in1012.2 mb 0.00 in0.0 mm 0.00 in0.0 mm 0.00 in0.0 mm
04:15 AM 46.0°F7.8°C 41.0°F5.0°C 81% 2.6 mph WSW4.2 kmh WSW 3.4 mph5.5 kmh 29.89 in1012.2 mb 0.00 in0.0 mm 0.00 in0.0 mm 0.00 in0.0 mm
04:20 AM 46.0°F7.8°C 41.0°F5.0°C 81% 2.7 mph WSW4.3 kmh WSW 5.4 mph8.7 kmh 29.89 in1012.2 mb 0.00 in0.0 mm 0.00 in0.0 mm 0.00 in0.0 mm
04:25 AM 45.9°F7.7°C 41.0°F5.0°C 82% 3.2 mph SW5.1 kmh SW 5.4 mph8.7 kmh 29.89 in1012.2 mb 0.00 in0.0 mm 0.00 in0.0 mm 0.00 in0.0 mm
04:30 AM 45.9°F7.7°C 41.0°F5.0°C 82% 3.6 mph SW5.8 kmh SW 6.3 mph10.1 kmh 29.89 in1012.2 mb 0.00 in0.0 mm 0.00 in0.0 mm 0.00 in0.0 mm
04:35 AM 45.9°F7.7°C 41.0°F5.0°C 82% 3.7 mph SW6.0 kmh SW 6.3 mph10.1 kmh 29.86 in1011.2 mb 0.00 in0.0 mm 0.00 in0.0 mm 0.00 in0.0 mm
04:40 AM 45.9°F7.7°C 41.0°F5.0°C 82% 4.5 mph SW7.2 kmh SW 9.6 mph15.4 kmh 29.86 in1011.2 mb 0.00 in0.0 mm 0.00 in0.0 mm 0.00 in0.0 mm
04:45 AM 45.9°F7.7°C 41.0°F5.0°C 82% 5.3 mph WSW8.5 kmh WSW 9.8 mph15.8 kmh 29.86 in1011.2 mb 0.00 in0.0 mm 0.00 in0.0 mm 0.00 in0.0 mm
04:50 AM 45.9°F7.7°C 41.0°F5.0°C 82% 5.8 mph WSW9.3 kmh WSW 9.8 mph15.8 kmh 29.86 in1011.2 mb 0.00 in0.0 mm 0.00 in0.0 mm 0.00 in0.0 mm
04:55 AM 45.9°F7.7°C 41.0°F5.0°C 82% 5.8 mph WSW9.3 kmh WSW 9.8 mph15.8 kmh 29.86 in1011.2 mb 0.00 in0.0 mm 0.00 in0.0 mm 0.00 in0.0 mm
05:00 AM 46.0°F7.8°C 41.0°F5.0°C 83% 4.8 mph WSW7.7 kmh WSW 6.5 mph10.5 kmh 29.86 in1011.2 mb 0.00 in0.0 mm 0.00 in0.0 mm 0.00 in0.0 mm
05:05 AM 46.0°F7.8°C 41.0°F5.0°C 83% 5.6 mph WSW9.0 kmh WSW 7.8 mph12.6 kmh 29.86 in1011.2 mb 0.00 in0.0 mm 0.00 in0.0 mm 0.00 in0.0 mm
05:10 AM 46.0°F7.8°C 41.0°F5.0°C 83% 6.4 mph WSW10.3 kmh WSW 8.1 mph13.0 kmh 29.86 in1011.2 mb 0.00 in0.0 mm 0.00 in0.0 mm 0.00 in0.0 mm
05:15 AM 46.2°F7.9°C 41.0°F5.0°C 83% 7.3 mph WSW11.7 kmh WSW 11.4 mph18.3 kmh 29.86 in1011.2 mb 0.00 in0.0 mm 0.00 in0.0 mm 0.00 in0.0 mm
05:20 AM 46.2°F7.9°C 41.0°F5.0°C 83% 6.7 mph WSW10.8 kmh WSW 11.4 mph18.3 kmh 29.83 in1010.2 mb 0.00 in0.0 mm 0.00 in0.0 mm 0.00 in0.0 mm
05:25 AM 46.2°F7.9°C 41.0°F5.0°C 83% 5.9 mph WSW9.5 kmh WSW 7.4 mph11.9 kmh 29.83 in1010.2 mb 0.00 in0.0 mm 0.00 in0.0 mm 0.00 in0.0 mm
05:30 AM 46.0°F7.8°C 41.0°F5.0°C 84% 6.2 mph WSW10.0 kmh WSW 10.3 mph16.6 kmh 29.83 in1010.2 mb 0.00 in0.0 mm 0.00 in0.0 mm 0.00 in0.0 mm
05:35 AM 46.2°F7.9°C 42.8°F6.0°C 84% 6.0 mph W9.7 kmh W 10.3 mph16.6 kmh 29.83 in1010.2 mb 0.00 in0.0 mm 0.00 in0.0 mm 0.00 in0.0 mm
05:40 AM 46.2°F7.9°C 42.8°F6.0°C 84% 5.9 mph W9.5 kmh W 8.1 mph13.0 kmh 29.83 in1010.2 mb 0.00 in0.0 mm 0.00 in0.0 mm 0.00 in0.0 mm
05:45 AM 46.2°F7.9°C 42.8°F6.0°C 84% 5.2 mph WSW8.4 kmh WSW 8.1 mph13.0 kmh 29.83 in1010.2 mb 0.00 in0.0 mm 0.00 in0.0 mm 0.00 in0.0 mm
05:50 AM 45.9°F7.7°C 41.0°F5.0°C 84% 6.6 mph WSW10.6 kmh WSW 9.4 mph15.1 kmh 29.83 in1010.2 mb 0.00 in0.0 mm 0.00 in0.0 mm 0.00 in0.0 mm
05:55 AM 45.9°F7.7°C 41.0°F5.0°C 84% 7.5 mph WSW12.1 kmh WSW 10.3 mph16.6 kmh 29.83 in1010.2 mb 0.00 in0.0 mm 0.00 in0.0 mm 0.00 in0.0 mm
06:00 AM 45.7°F7.6°C 41.0°F5.0°C 84% 7.0 mph WSW11.3 kmh WSW 10.3 mph16.6 kmh 29.83 in1010.2 mb 0.00 in0.0 mm 0.00 in0.0 mm 0.00 in0.0 mm
06:05 AM 45.5°F7.5°C 42.8°F6.0°C 85% 7.1 mph WSW11.4 kmh WSW 10.1 mph16.3 kmh 29.83 in1010.2 mb 0.00 in0.0 mm 0.00 in0.0 mm 0.00 in0.0 mm
06:10 AM 45.5°F7.5°C 42.8°F6.0°C 85% 6.4 mph WSW10.3 kmh WSW 10.1 mph16.3 kmh 29.83 in1010.2 mb 0.00 in0.0 mm 0.00 in0.0 mm 0.00 in0.0 mm
06:15 AM 45.5°F7.5°C 42.8°F6.0°C 85% 6.2 mph WSW10.0 kmh WSW 9.4 mph15.1 kmh 29.83 in1010.2 mb 0.00 in0.0 mm 0.00 in0.0 mm 0.00 in0.0 mm
06:20 AM 45.5°F7.5°C 42.8°F6.0°C 85% 6.8 mph WSW10.9 kmh WSW 9.4 mph15.1 kmh 29.83 in1010.2 mb 0.00 in0.0 mm 0.00 in0.0 mm 0.00 in0.0 mm
06:25 AM 45.5°F7.5°C 42.8°F6.0°C 85% 7.3 mph WSW11.7 kmh WSW 9.8 mph15.8 kmh 29.83 in1010.2 mb 0.00 in0.0 mm 0.00 in0.0 mm 0.00 in0.0 mm
06:30 AM 45.5°F7.5°C 42.8°F6.0°C 85% 7.2 mph WSW11.6 kmh WSW 9.8 mph15.8 kmh 29.83 in1010.2 mb 0.00 in0.0 mm 0.00 in0.0 mm 0.00 in0.0 mm
06:35 AM 45.5°F7.5°C 42.8°F6.0°C 85% 6.3 mph WSW10.1 kmh WSW 11.0 mph17.7 kmh 29.83 in1010.2 mb 0.00 in0.0 mm 0.00 in0.0 mm 0.00 in0.0 mm
06:40 AM 45.3°F7.4°C 41.0°F5.0°C 85% 5.4 mph WSW8.7 kmh WSW 11.0 mph17.7 kmh 29.83 in1010.2 mb 0.00 in0.0 mm 0.00 in0.0 mm 0.00 in0.0 mm
06:45 AM 45.1°F7.3°C 41.0°F5.0°C 85% 4.5 mph WSW7.2 kmh WSW 8.9 mph14.3 kmh 29.83 in1010.2 mb 0.00 in0.0 mm 0.00 in0.0 mm 0.00 in0.0 mm
06:50 AM 45.5°F7.5°C 41.0°F5.0°C 84% 5.2 mph W8.4 kmh W 7.8 mph12.6 kmh 29.83 in1010.2 mb 0.00 in0.0 mm 0.00 in0.0 mm 0.00 in0.0 mm
06:55 AM 45.5°F7.5°C 41.0°F5.0°C 84% 5.4 mph WNW8.7 kmh WNW 7.8 mph12.6 kmh 29.83 in1010.2 mb 0.00 in0.0 mm 0.00 in0.0 mm 0.00 in0.0 mm
07:00 AM 45.5°F7.5°C 41.0°F5.0°C 84% 5.2 mph W8.4 kmh W 10.1 mph16.3 kmh 29.83 in1010.2 mb 0.00 in0.0 mm 0.00 in0.0 mm 0.00 in0.0 mm
07:05 AM 45.5°F7.5°C 41.0°F5.0°C 83% 6.5 mph W10.5 kmh W 10.7 mph17.2 kmh 29.83 in1010.2 mb 0.00 in0.0 mm 0.00 in0.0 mm 0.00 in0.0 mm
07:10 AM 45.3°F7.4°C 41.0°F5.0°C 82% 7.1 mph W11.4 kmh W 10.7 mph17.2 kmh 29.83 in1010.2 mb 0.00 in0.0 mm 0.00 in0.0 mm 0.00 in0.0 mm
07:15 AM 45.5°F7.5°C 41.0°F5.0°C 81% 6.1 mph WSW9.8 kmh WSW 9.6 mph15.4 kmh 29.83 in1010.2 mb 0.00 in0.0 mm 0.00 in0.0 mm 0.00 in0.0 mm
07:20 AM 45.7°F7.6°C 41.0°F5.0°C 81% 6.4 mph WNW10.3 kmh WNW 9.6 mph15.4 kmh 29.80 in1009.1 mb 0.00 in0.0 mm 0.00 in0.0 mm 0.00 in0.0 mm
07:25 AM 45.9°F7.7°C 41.0°F5.0°C 81% 6.4 mph WNW10.3 kmh WNW 8.7 mph14.0 kmh 29.80 in1009.1 mb 0.00 in0.0 mm 0.00 in0.0 mm 0.00 in0.0 mm
07:30 AM 45.7°F7.6°C 41.0°F5.0°C 80% 6.7 mph WSW10.8 kmh WSW 9.4 mph15.1 kmh 29.80 in1009.1 mb 0.00 in0.0 mm 0.00 in0.0 mm 0.00 in0.0 mm
07:35 AM 45.1°F7.3°C 39.2°F4.0°C 80% 5.7 mph WSW9.2 kmh WSW 9.4 mph15.1 kmh 29.80 in1009.1 mb 0.00 in0.0 mm 0.00 in0.0 mm 0.00 in0.0 mm
07:40 AM 45.3°F7.4°C 39.2°F4.0°C 80% 5.7 mph W9.2 kmh W 8.5 mph13.7 kmh 29.80 in1009.1 mb 0.00 in0.0 mm 0.00 in0.0 mm 0.00 in0.0 mm
07:45 AM 45.3°F7.4°C 39.2°F4.0°C 80% 6.6 mph WSW10.6 kmh WSW 10.7 mph17.2 kmh 29.80 in1009.1 mb 0.00 in0.0 mm 0.00 in0.0 mm 0.00 in0.0 mm
07:50 AM 45.3°F7.4°C 39.2°F4.0°C 80% 6.2 mph WSW10.0 kmh WSW 10.7 mph17.2 kmh 29.80 in1009.1 mb 0.00 in0.0 mm 0.00 in0.0 mm 0.00 in0.0 mm
07:55 AM 45.1°F7.3°C 39.2°F4.0°C 80% 5.3 mph WSW8.5 kmh WSW 8.1 mph13.0 kmh 29.80 in1009.1 mb 0.00 in0.0 mm 0.00 in0.0 mm 0.00 in0.0 mm
08:00 AM 45.3°F7.4°C 39.2°F4.0°C 80% 5.3 mph WSW8.5 kmh WSW 9.8 mph15.8 kmh 29.80 in1009.1 mb 0.00 in0.0 mm 0.00 in0.0 mm 0.00 in0.0 mm
08:05 AM 45.5°F7.5°C 41.0°F5.0°C 80% 6.7 mph WSW10.8 kmh WSW 9.8 mph15.8 kmh 29.80 in1009.1 mb 0.00 in0.0 mm 0.00 in0.0 mm 0.00 in0.0 mm
08:10 AM 45.3°F7.4°C 39.2°F4.0°C 80% 6.2 mph W10.0 kmh W 8.7 mph14.0 kmh 29.80 in1009.1 mb 0.00 in0.0 mm 0.00 in0.0 mm 0.00 in0.0 mm
08:15 AM 45.3°F7.4°C 39.2°F4.0°C 80% 4.8 mph WNW7.7 kmh WNW 6.5 mph10.5 kmh 29.80 in1009.1 mb 0.00 in0.0 mm 0.00 in0.0 mm 0.00 in0.0 mm
08:20 AM 45.3°F7.4°C 39.2°F4.0°C 80% 4.3 mph WNW6.9 kmh WNW 6.0 mph9.7 kmh 29.80 in1009.1 mb 0.00 in0.0 mm 0.00 in0.0 mm 0.00 in0.0 mm
08:25 AM 45.1°F7.3°C 39.2°F4.0°C 80% 4.5 mph WNW7.2 kmh WNW 7.8 mph12.6 kmh 29.80 in1009.1 mb 0.00 in0.0 mm 0.00 in0.0 mm 0.00 in0.0 mm
08:30 AM 45.1°F7.3°C 39.2°F4.0°C 80% 4.8 mph WSW7.7 kmh WSW 7.8 mph12.6 kmh 29.80 in1009.1 mb 0.00 in0.0 mm 0.00 in0.0 mm 0.00 in0.0 mm
08:35 AM 45.1°F7.3°C 39.2°F4.0°C 80% 4.9 mph WSW7.9 kmh WSW 7.2 mph11.6 kmh 29.80 in1009.1 mb 0.00 in0.0 mm 0.00 in0.0 mm 0.00 in0.0 mm
08:40 AM 45.1°F7.3°C 39.2°F4.0°C 80% 5.0 mph W8.0 kmh W 6.0 mph9.7 kmh 29.80 in1009.1 mb 0.00 in0.0 mm 0.00 in0.0 mm 0.00 in0.0 mm
08:45 AM 45.3°F7.4°C 39.2°F4.0°C 79% 5.1 mph W8.2 kmh W 8.1 mph13.0 kmh 29.80 in1009.1 mb 0.00 in0.0 mm 0.00 in0.0 mm 0.00 in0.0 mm
08:50 AM 45.3°F7.4°C 39.2°F4.0°C 79% 5.2 mph WSW8.4 kmh WSW 8.1 mph13.0 kmh 29.80 in1009.1 mb 0.00 in0.0 mm 0.00 in0.0 mm 0.00 in0.0 mm
08:55 AM 45.5°F7.5°C 39.2°F4.0°C 79% 6.3 mph W10.1 kmh W 9.8 mph15.8 kmh 29.80 in1009.1 mb 0.00 in0.0 mm 0.00 in0.0 mm 0.00 in0.0 mm
09:00 AM 45.5°F7.5°C 39.2°F4.0°C 79% 5.6 mph W9.0 kmh W 9.8 mph15.8 kmh 29.80 in1009.1 mb 0.00 in0.0 mm 0.00 in0.0 mm 0.00 in0.0 mm
09:05 AM 45.7°F7.6°C 39.2°F4.0°C 79% 4.9 mph WSW7.9 kmh WSW 7.6 mph12.2 kmh 29.83 in1010.2 mb 0.00 in0.0 mm 0.00 in0.0 mm 0.00 in0.0 mm
09:10 AM 45.7°F7.6°C 39.2°F4.0°C 79% 5.7 mph WSW9.2 kmh WSW 7.6 mph12.2 kmh 29.83 in1010.2 mb 0.00 in0.0 mm 0.00 in0.0 mm 0.00 in0.0 mm
09:15 AM 45.7°F7.6°C 39.2°F4.0°C 78% 4.2 mph W6.8 kmh W 6.9 mph11.1 kmh 29.83 in1010.2 mb 0.00 in0.0 mm 0.00 in0.0 mm 0.00 in0.0 mm
09:20 AM 45.7°F7.6°C 39.2°F4.0°C 78% 3.4 mph W5.5 kmh W 6.9 mph11.1 kmh 29.83 in1010.2 mb 0.00 in0.0 mm 0.00 in0.0 mm 0.00 in0.0 mm
09:25 AM 45.9°F7.7°C 39.2°F4.0°C 78% 4.3 mph NW6.9 kmh NW 7.8 mph12.6 kmh 29.83 in1010.2 mb 0.00 in0.0 mm 0.00 in0.0 mm 0.00 in0.0 mm
09:30 AM 45.9°F7.7°C 39.2°F4.0°C 78% 4.8 mph W7.7 kmh W 7.8 mph12.6 kmh 29.83 in1010.2 mb 0.00 in0.0 mm 0.00 in0.0 mm 0.00 in0.0 mm
09:35 AM 45.9°F7.7°C 39.2°F4.0°C 78% 4.7 mph W7.6 kmh W 7.8 mph12.6 kmh 29.83 in1010.2 mb 0.00 in0.0 mm 0.00 in0.0 mm 0.00 in0.0 mm
09:40 AM 46.2°F7.9°C 39.2°F4.0°C 77% 6.1 mph W9.8 kmh W 8.7 mph14.0 kmh 29.83 in1010.2 mb 0.00 in0.0 mm 0.00 in0.0 mm 0.00 in0.0 mm
09:45 AM 46.2°F7.9°C 39.2°F4.0°C 77% 6.3 mph W10.1 kmh W 8.7 mph14.0 kmh 29.83 in1010.2 mb 0.00 in0.0 mm 0.00 in0.0 mm 0.00 in0.0 mm
09:50 AM 46.4°F8.0°C 41.0°F5.0°C 77% 6.4 mph WNW10.3 kmh WNW 8.7 mph14.0 kmh 29.80 in1009.1 mb 0.00 in0.0 mm 0.00 in0.0 mm 0.00 in0.0 mm
09:55 AM 46.2°F7.9°C 39.2°F4.0°C 77% 5.7 mph W9.2 kmh W 8.5 mph13.7 kmh 29.80 in1009.1 mb 0.00 in0.0 mm 0.00 in0.0 mm 0.00 in0.0 mm
10:00 AM 46.2°F7.9°C 39.2°F4.0°C 77% 4.9 mph W7.9 kmh W 7.4 mph11.9 kmh 29.80 in1009.1 mb 0.00 in0.0 mm 0.00 in0.0 mm 0.00 in0.0 mm
10:05 AM 46.2°F7.9°C 39.2°F4.0°C 77% 5.3 mph W8.5 kmh W 8.1 mph13.0 kmh 29.80 in1009.1 mb 0.00 in0.0 mm 0.00 in0.0 mm 0.00 in0.0 mm
10:10 AM 46.2°F7.9°C 39.2°F4.0°C 77% 5.6 mph W9.0 kmh W 8.1 mph13.0 kmh 29.80 in1009.1 mb 0.00 in0.0 mm 0.00 in0.0 mm 0.00 in0.0 mm
10:15 AM 46.2°F7.9°C 39.2°F4.0°C 77% 5.8 mph W9.3 kmh W 9.6 mph15.4 kmh 29.80 in1009.1 mb 0.00 in0.0 mm 0.00 in0.0 mm 0.00 in0.0 mm
10:20 AM 46.2°F7.9°C 39.2°F4.0°C 77% 6.2 mph W10.0 kmh W 9.6 mph15.4 kmh 29.80 in1009.1 mb 0.00 in0.0 mm 0.00 in0.0 mm 0.00 in0.0 mm
10:25 AM 46.4°F8.0°C 41.0°F5.0°C 77% 6.5 mph W10.5 kmh W 9.6 mph15.4 kmh 29.80 in1009.1 mb 0.00 in0.0 mm 0.00 in0.0 mm 0.00 in0.0 mm
10:30 AM 46.4°F8.0°C 41.0°F5.0°C 77% 6.1 mph W9.8 kmh W 9.6 mph15.4 kmh 29.80 in1009.1 mb 0.00 in0.0 mm 0.00 in0.0 mm 0.00 in0.0 mm
10:35 AM 46.4°F8.0°C 41.0°F5.0°C 77% 5.7 mph W9.2 kmh W 7.8 mph12.6 kmh 29.83 in1010.2 mb 0.00 in0.0 mm 0.00 in0.0 mm 0.00 in0.0 mm
10:40 AM 46.4°F8.0°C 41.0°F5.0°C 77% 5.8 mph W9.3 kmh W 7.8 mph12.6 kmh 29.83 in1010.2 mb 0.00 in0.0 mm 0.00 in0.0 mm 0.00 in0.0 mm
10:45 AM 46.4°F8.0°C 41.0°F5.0°C 77% 6.0 mph W9.7 kmh W 8.7 mph14.0 kmh 29.83 in1010.2 mb 0.00 in0.0 mm 0.00 in0.0 mm 0.00 in0.0 mm
10:50 AM 46.4°F8.0°C 41.0°F5.0°C 77% 6.6 mph WSW10.6 kmh WSW 10.7 mph17.2 kmh 29.80 in1009.1 mb 0.00 in0.0 mm 0.00 in0.0 mm 0.00 in0.0 mm
10:55 AM 46.6°F8.1°C 41.0°F5.0°C 77% 6.5 mph W10.5 kmh W 10.7 mph17.2 kmh 29.80 in1009.1 mb 0.00 in0.0 mm 0.00 in0.0 mm 0.00 in0.0 mm
11:00 AM 46.6°F8.1°C 41.0°F5.0°C 77% 6.6 mph W10.6 kmh W 9.6 mph15.4 kmh 29.80 in1009.1 mb 0.00 in0.0 mm 0.00 in0.0 mm 0.00 in0.0 mm
11:05 AM 46.6°F8.1°C 41.0°F5.0°C 77% 7.6 mph WSW12.2 kmh WSW 10.1 mph16.3 kmh 29.80 in1009.1 mb 0.00 in0.0 mm 0.00 in0.0 mm 0.00 in0.0 mm
11:10 AM 46.8°F8.2°C 39.2°F4.0°C 76% 8.1 mph W13.0 kmh W 11.4 mph18.3 kmh 29.80 in1009.1 mb 0.00 in0.0 mm 0.00 in0.0 mm 0.00 in0.0 mm
11:15 AM 46.8°F8.2°C 39.2°F4.0°C 76% 8.7 mph WNW14.0 kmh WNW 11.4 mph18.3 kmh 29.80 in1009.1 mb 0.00 in0.0 mm 0.00 in0.0 mm 0.00 in0.0 mm
11:20 AM 46.8°F8.2°C 39.2°F4.0°C 76% 7.9 mph W12.7 kmh W 11.2 mph18.0 kmh 29.80 in1009.1 mb 0.00 in0.0 mm 0.00 in0.0 mm 0.00 in0.0 mm
11:25 AM 46.8°F8.2°C 39.2°F4.0°C 76% 7.2 mph W11.6 kmh W 11.2 mph18.0 kmh 29.80 in1009.1 mb 0.00 in0.0 mm 0.00 in0.0 mm 0.00 in0.0 mm
11:30 AM 47.1°F8.4°C 41.0°F5.0°C 75% 8.2 mph W13.2 kmh W 12.5 mph20.1 kmh 29.80 in1009.1 mb 0.00 in0.0 mm 0.00 in0.0 mm 0.00 in0.0 mm
11:35 AM 47.1°F8.4°C 41.0°F5.0°C 75% 7.7 mph W12.4 kmh W 12.5 mph20.1 kmh 29.80 in1009.1 mb 0.00 in0.0 mm 0.00 in0.0 mm 0.00 in0.0 mm
11:40 AM 47.1°F8.4°C 41.0°F5.0°C 75% 6.5 mph WSW10.5 kmh WSW 10.1 mph16.3 kmh 29.80 in1009.1 mb 0.00 in0.0 mm 0.00 in0.0 mm 0.00 in0.0 mm
11:45 AM 47.1°F8.4°C 41.0°F5.0°C 75% 7.1 mph WSW11.4 kmh WSW 11.0 mph17.7 kmh 29.80 in1009.1 mb 0.00 in0.0 mm 0.00 in0.0 mm 0.00 in0.0 mm
11:50 AM 47.3°F8.5°C 41.0°F5.0°C 75% 8.2 mph WSW13.2 kmh WSW 11.0 mph17.7 kmh 29.80 in1009.1 mb 0.00 in0.0 mm 0.00 in0.0 mm 0.00 in0.0 mm
11:55 AM 47.5°F8.6°C 41.0°F5.0°C 75% 8.5 mph WSW13.7 kmh WSW 11.0 mph17.7 kmh 29.80 in1009.1 mb 0.00 in0.0 mm 0.00 in0.0 mm 0.00 in0.0 mm
12:00 PM 47.5°F8.6°C 41.0°F5.0°C 75% 8.3 mph WSW13.4 kmh WSW 11.0 mph17.7 kmh 29.80 in1009.1 mb 0.00 in0.0 mm 0.00 in0.0 mm 0.00 in0.0 mm
12:05 PM 47.5°F8.6°C 41.0°F5.0°C 75% 7.2 mph W11.6 kmh W 9.6 mph15.4 kmh 29.77 in1008.1 mb 0.00 in0.0 mm 0.00 in0.0 mm 0.00 in0.0 mm
12:10 PM 47.5°F8.6°C 41.0°F5.0°C 75% 6.5 mph W10.5 kmh W 10.7 mph17.2 kmh 29.77 in1008.1 mb 0.00 in0.0 mm 0.00 in0.0 mm 0.00 in0.0 mm
12:15 PM 47.5°F8.6°C 41.0°F5.0°C 75% 6.9 mph WSW11.1 kmh WSW 10.7 mph17.2 kmh 29.77 in1008.1 mb 0.00 in0.0 mm 0.00 in0.0 mm 0.00 in0.0 mm
12:20 PM 47.5°F8.6°C 41.0°F5.0°C 75% 7.1 mph W11.4 kmh W 10.5 mph16.9 kmh 29.77 in1008.1 mb 0.00 in0.0 mm 0.00 in0.0 mm 0.00 in0.0 mm
12:25 PM 47.5°F8.6°C 41.0°F5.0°C 75% 8.0 mph W12.9 kmh W 10.7 mph17.2 kmh 29.77 in1008.1 mb 0.00 in0.0 mm 0.00 in0.0 mm 0.00 in0.0 mm
12:30 PM 47.7°F8.7°C 41.0°F5.0°C 75% 8.3 mph W13.4 kmh W 10.7 mph17.2 kmh 29.77 in1008.1 mb 0.00 in0.0 mm 0.00 in0.0 mm 0.00 in0.0 mm
12:35 PM 47.7°F8.7°C 41.0°F5.0°C 74% 9.4 mph WSW15.1 kmh WSW 12.1 mph19.5 kmh 29.80 in1009.1 mb 0.00 in0.0 mm 0.00 in0.0 mm 0.00 in0.0 mm
12:40 PM 47.7°F8.7°C 41.0°F5.0°C 75% 8.7 mph WSW14.0 kmh WSW 12.1 mph19.5 kmh 29.80 in1009.1 mb 0.00 in0.0 mm 0.00 in0.0 mm 0.00 in0.0 mm
12:45 PM 47.7°F8.7°C 41.0°F5.0°C 75% 7.9 mph WSW12.7 kmh WSW 12.1 mph19.5 kmh 29.80 in1009.1 mb 0.00 in0.0 mm 0.00 in0.0 mm 0.00 in0.0 mm
12:50 PM 47.7°F8.7°C 41.0°F5.0°C 75% 7.1 mph WSW11.4 kmh WSW 11.0 mph17.7 kmh 29.77 in1008.1 mb 0.00 in0.0 mm 0.00 in0.0 mm 0.00 in0.0 mm
12:55 PM 47.8°F8.8°C 41.0°F5.0°C 75% 8.0 mph WSW12.9 kmh WSW 13.2 mph21.2 kmh 29.77 in1008.1 mb 0.00 in0.0 mm 0.00 in0.0 mm 0.00 in0.0 mm
01:00 PM 47.8°F8.8°C 41.0°F5.0°C 74% 9.3 mph WSW15.0 kmh WSW 13.2 mph21.2 kmh 29.77 in1008.1 mb 0.00 in0.0 mm 0.00 in0.0 mm 0.00 in0.0 mm
01:05 PM 48.0°F8.9°C 41.0°F5.0°C 74% 7.2 mph WSW11.6 kmh WSW 13.2 mph21.2 kmh 29.77 in1008.1 mb 0.00 in0.0 mm 0.00 in0.0 mm 0.00 in0.0 mm
01:10 PM 48.0°F8.9°C 41.0°F5.0°C 74% 7.0 mph WSW11.3 kmh WSW 12.3 mph19.8 kmh 29.77 in1008.1 mb 0.00 in0.0 mm 0.00 in0.0 mm 0.00 in0.0 mm
01:15 PM 48.0°F8.9°C 41.0°F5.0°C 74% 8.2 mph WSW13.2 kmh WSW 12.3 mph19.8 kmh 29.77 in1008.1 mb 0.00 in0.0 mm 0.00 in0.0 mm 0.00 in0.0 mm
01:20 PM 48.0°F8.9°C 41.0°F5.0°C 74% 8.1 mph WSW13.0 kmh WSW 10.7 mph17.2 kmh 29.77 in1008.1 mb 0.00 in0.0 mm 0.00 in0.0 mm 0.00 in0.0 mm
01:25 PM 48.2°F9.0°C 41.0°F5.0°C 74% 7.0 mph WSW11.3 kmh WSW 9.8 mph15.8 kmh 29.77 in1008.1 mb 0.00 in0.0 mm 0.00 in0.0 mm 0.00 in0.0 mm
01:30 PM 48.2°F9.0°C 41.0°F5.0°C 74% 7.1 mph W11.4 kmh W 9.6 mph15.4 kmh 29.77 in1008.1 mb 0.00 in0.0 mm 0.00 in0.0 mm 0.00 in0.0 mm
01:35 PM 48.2°F9.0°C 41.0°F5.0°C 74% 7.9 mph WSW12.7 kmh WSW 12.1 mph19.5 kmh 29.77 in1008.1 mb 0.00 in0.0 mm 0.00 in0.0 mm 0.00 in0.0 mm
01:40 PM 48.2°F9.0°C 41.0°F5.0°C 74% 7.0 mph WSW11.3 kmh WSW 12.1 mph19.5 kmh 29.77 in1008.1 mb 0.00 in0.0 mm 0.00 in0.0 mm 0.00 in0.0 mm
01:45 PM 48.2°F9.0°C 41.0°F5.0°C 74% 6.3 mph WSW10.1 kmh WSW 9.6 mph15.4 kmh 29.77 in1008.1 mb 0.00 in0.0 mm 0.00 in0.0 mm 0.00 in0.0 mm
01:50 PM 48.4°F9.1°C 41.0°F5.0°C 74% 6.5 mph W10.5 kmh W 11.4 mph18.3 kmh 29.74 in1007.1 mb 0.00 in0.0 mm 0.00 in0.0 mm 0.00 in0.0 mm
01:55 PM 48.4°F9.1°C 41.0°F5.0°C 74% 6.4 mph W10.3 kmh W 11.4 mph18.3 kmh 29.74 in1007.1 mb 0.00 in0.0 mm 0.00 in0.0 mm 0.00 in0.0 mm
02:00 PM 48.6°F9.2°C 41.0°F5.0°C 74% 8.7 mph WSW14.0 kmh WSW 13.2 mph21.2 kmh 29.74 in1007.1 mb 0.00 in0.0 mm 0.00 in0.0 mm 0.00 in0.0 mm
02:05 PM 48.6°F9.2°C 41.0°F5.0°C 74% 9.5 mph WSW15.3 kmh WSW 13.2 mph21.2 kmh 29.74 in1007.1 mb 0.00 in0.0 mm 0.00 in0.0 mm 0.00 in0.0 mm
02:10 PM 48.7°F9.3°C 41.0°F5.0°C 73% 7.8 mph WSW12.6 kmh WSW 10.5 mph16.9 kmh 29.74 in1007.1 mb 0.00 in0.0 mm 0.00 in0.0 mm 0.00 in0.0 mm
02:15 PM 48.7°F9.3°C 41.0°F5.0°C 73% 6.8 mph WSW10.9 kmh WSW 10.5 mph16.9 kmh 29.74 in1007.1 mb 0.00 in0.0 mm 0.00 in0.0 mm 0.00 in0.0 mm
02:20 PM 48.7°F9.3°C 41.0°F5.0°C 74% 5.4 mph WSW8.7 kmh WSW 8.7 mph14.0 kmh 29.74 in1007.1 mb 0.00 in0.0 mm 0.00 in0.0 mm 0.00 in0.0 mm
02:25 PM 48.7°F9.3°C 41.0°F5.0°C 74% 6.1 mph WSW9.8 kmh WSW 10.7 mph17.2 kmh 29.74 in1007.1 mb 0.00 in0.0 mm 0.00 in0.0 mm 0.00 in0.0 mm
02:30 PM 48.7°F9.3°C 41.0°F5.0°C 73% 7.8 mph WSW12.6 kmh WSW 13.2 mph21.2 kmh 29.74 in1007.1 mb 0.00 in0.0 mm 0.00 in0.0 mm 0.00 in0.0 mm
02:35 PM 48.9°F9.4°C 41.0°F5.0°C 73% 8.3 mph WSW13.4 kmh WSW 13.2 mph21.2 kmh 29.74 in1007.1 mb 0.00 in0.0 mm 0.00 in0.0 mm 0.00 in0.0 mm
02:40 PM 48.9°F9.4°C 41.0°F5.0°C 73% 8.4 mph WSW13.5 kmh WSW 10.5 mph16.9 kmh 29.74 in1007.1 mb 0.00 in0.0 mm 0.00 in0.0 mm 0.00 in0.0 mm
02:45 PM 48.9°F9.4°C 41.0°F5.0°C 72% 8.5 mph WSW13.7 kmh WSW 11.4 mph18.3 kmh 29.74 in1007.1 mb 0.00 in0.0 mm 0.00 in0.0 mm 0.00 in0.0 mm
02:50 PM 48.9°F9.4°C 41.0°F5.0°C 73% 8.4 mph W13.5 kmh W 12.8 mph20.6 kmh 29.74 in1007.1 mb 0.00 in0.0 mm 0.00 in0.0 mm 0.00 in0.0 mm
02:55 PM 48.6°F9.2°C 41.0°F5.0°C 73% 7.7 mph WSW12.4 kmh WSW 12.8 mph20.6 kmh 29.74 in1007.1 mb 0.00 in0.0 mm 0.00 in0.0 mm 0.00 in0.0 mm
03:00 PM 48.6°F9.2°C 41.0°F5.0°C 73% 6.8 mph WSW10.9 kmh WSW 10.1 mph16.3 kmh 29.74 in1007.1 mb 0.00 in0.0 mm 0.00 in0.0 mm 0.00 in0.0 mm
03:05 PM 48.4°F9.1°C 41.0°F5.0°C 73% 8.1 mph WSW13.0 kmh WSW 14.5 mph23.3 kmh 29.74 in1007.1 mb 0.00 in0.0 mm 0.00 in0.0 mm 0.00 in0.0 mm
03:10 PM 48.0°F8.9°C 41.0°F5.0°C 74% 10.5 mph WSW16.9 kmh WSW 14.5 mph23.3 kmh 29.74 in1007.1 mb 0.00 in0.0 mm 0.00 in0.0 mm 0.00 in0.0 mm
03:15 PM 47.7°F8.7°C 41.0°F5.0°C 75% 8.9 mph W14.3 kmh W 13.0 mph20.9 kmh 29.74 in1007.1 mb 0.00 in0.0 mm 0.00 in0.0 mm 0.00 in0.0 mm
03:20 PM 47.5°F8.6°C 41.0°F5.0°C 76% 8.2 mph W13.2 kmh W 12.8 mph20.6 kmh 29.74 in1007.1 mb 0.00 in0.0 mm 0.00 in0.0 mm 0.00 in0.0 mm
03:25 PM 47.3°F8.5°C 41.0°F5.0°C 77% 7.2 mph WSW11.6 kmh WSW 12.8 mph20.6 kmh 29.74 in1007.1 mb 0.00 in0.0 mm 0.00 in0.0 mm 0.00 in0.0 mm
03:30 PM 47.3°F8.5°C 41.0°F5.0°C 77% 6.7 mph WSW10.8 kmh WSW 11.0 mph17.7 kmh 29.74 in1007.1 mb 0.00 in0.0 mm 0.00 in0.0 mm 0.00 in0.0 mm
03:35 PM 46.9°F8.3°C 41.0°F5.0°C 78% 6.5 mph WSW10.5 kmh WSW 11.0 mph17.7 kmh 29.74 in1007.1 mb 0.00 in0.0 mm 0.00 in0.0 mm 0.00 in0.0 mm
03:40 PM 46.8°F8.2°C 41.0°F5.0°C 78% 6.3 mph WSW10.1 kmh WSW 9.6 mph15.4 kmh 29.74 in1007.1 mb 0.00 in0.0 mm 0.00 in0.0 mm 0.00 in0.0 mm
03:45 PM 46.6°F8.1°C 41.0°F5.0°C 79% 5.9 mph WSW9.5 kmh WSW 9.6 mph15.4 kmh 29.74 in1007.1 mb 0.00 in0.0 mm 0.00 in0.0 mm 0.00 in0.0 mm
03:50 PM 46.4°F8.0°C 41.0°F5.0°C 79% 5.3 mph WSW8.5 kmh WSW 8.7 mph14.0 kmh 29.74 in1007.1 mb 0.00 in0.0 mm 0.00 in0.0 mm 0.00 in0.0 mm
03:55 PM 46.4°F8.0°C 41.0°F5.0°C 79% 5.9 mph WSW9.5 kmh WSW 10.1 mph16.3 kmh 29.74 in1007.1 mb 0.00 in0.0 mm 0.00 in0.0 mm 0.00 in0.0 mm
04:00 PM 46.4°F8.0°C 41.0°F5.0°C 79% 5.4 mph WSW8.7 kmh WSW 10.1 mph16.3 kmh 29.74 in1007.1 mb 0.00 in0.0 mm 0.00 in0.0 mm 0.00 in0.0 mm
04:05 PM 46.2°F7.9°C 41.0°F5.0°C 80% 4.3 mph WSW6.9 kmh WSW 6.7 mph10.8 kmh 29.74 in1007.1 mb 0.00 in0.0 mm 0.00 in0.0 mm 0.00 in0.0 mm
04:10 PM 46.2°F7.9°C 41.0°F5.0°C 80% 5.0 mph WSW8.0 kmh WSW 10.1 mph16.3 kmh 29.74 in1007.1 mb 0.00 in0.0 mm 0.00 in0.0 mm 0.00 in0.0 mm
04:15 PM 46.0°F7.8°C 41.0°F5.0°C 80% 4.9 mph WSW7.9 kmh WSW 10.1 mph16.3 kmh 29.74 in1007.1 mb 0.00 in0.0 mm 0.00 in0.0 mm 0.00 in0.0 mm
04:20 PM 46.0°F7.8°C 41.0°F5.0°C 81% 3.9 mph WSW6.3 kmh WSW 6.5 mph10.5 kmh 29.74 in1007.1 mb 0.00 in0.0 mm 0.00 in0.0 mm 0.00 in0.0 mm
04:25 PM 46.0°F7.8°C 41.0°F5.0°C 81% 3.5 mph WSW5.6 kmh WSW 5.8 mph9.3 kmh 29.74 in1007.1 mb 0.00 in0.0 mm 0.00 in0.0 mm 0.00 in0.0 mm
04:30 PM 45.9°F7.7°C 41.0°F5.0°C 81% 4.3 mph WSW6.9 kmh WSW 6.0 mph9.7 kmh 29.74 in1007.1 mb 0.00 in0.0 mm 0.00 in0.0 mm 0.00 in0.0 mm
04:35 PM 45.9°F7.7°C 41.0°F5.0°C 81% 4.7 mph WSW7.6 kmh WSW 6.5 mph10.5 kmh 29.71 in1006.1 mb 0.00 in0.0 mm 0.00 in0.0 mm 0.00 in0.0 mm
04:40 PM 45.9°F7.7°C 41.0°F5.0°C 81% 4.4 mph WSW7.1 kmh WSW 7.6 mph12.2 kmh 29.71 in1006.1 mb 0.00 in0.0 mm 0.00 in0.0 mm 0.00 in0.0 mm
04:45 PM 45.9°F7.7°C 41.0°F5.0°C 81% 4.2 mph WSW6.8 kmh WSW 7.6 mph12.2 kmh 29.71 in1006.1 mb 0.00 in0.0 mm 0.00 in0.0 mm 0.00 in0.0 mm
04:50 PM 45.9°F7.7°C 41.0°F5.0°C 81% 4.2 mph WSW6.8 kmh WSW 7.6 mph12.2 kmh 29.71 in1006.1 mb 0.00 in0.0 mm 0.00 in0.0 mm 0.00 in0.0 mm
04:55 PM 46.0°F7.8°C 41.0°F5.0°C 81% 4.2 mph WSW6.8 kmh WSW 6.0 mph9.7 kmh 29.71 in1006.1 mb 0.00 in0.0 mm 0.00 in0.0 mm 0.00 in0.0 mm
05:00 PM 46.0°F7.8°C 41.0°F5.0°C 81% 4.0 mph W6.4 kmh W 5.4 mph8.7 kmh 29.71 in1006.1 mb 0.00 in0.0 mm 0.00 in0.0 mm 0.00 in0.0 mm
05:05 PM 46.0°F7.8°C 41.0°F5.0°C 81% 3.3 mph WSW5.3 kmh WSW 5.4 mph8.7 kmh 29.71 in1006.1 mb 0.00 in0.0 mm 0.00 in0.0 mm 0.00 in0.0 mm
05:10 PM 46.0°F7.8°C 41.0°F5.0°C 81% 3.1 mph WSW5.0 kmh WSW 5.4 mph8.7 kmh 29.71 in1006.1 mb 0.00 in0.0 mm 0.00 in0.0 mm 0.00 in0.0 mm
05:15 PM 46.0°F7.8°C 41.0°F5.0°C 81% 2.5 mph WSW4.0 kmh WSW 4.5 mph7.2 kmh 29.71 in1006.1 mb 0.00 in0.0 mm 0.00 in0.0 mm 0.00 in0.0 mm
05:20 PM 46.2°F7.9°C 41.0°F5.0°C 81% 2.2 mph WSW3.5 kmh WSW 3.6 mph5.8 kmh 29.71 in1006.1 mb 0.00 in0.0 mm 0.00 in0.0 mm 0.00 in0.0 mm
05:25 PM 46.2°F7.9°C 41.0°F5.0°C 81% 2.2 mph WSW3.5 kmh WSW 3.6 mph5.8 kmh 29.71 in1006.1 mb 0.00 in0.0 mm 0.00 in0.0 mm 0.00 in0.0 mm
05:30 PM 46.2°F7.9°C 41.0°F5.0°C 81% 3.4 mph WSW5.5 kmh WSW 3.8 mph6.1 kmh 29.71 in1006.1 mb 0.00 in0.0 mm 0.00 in0.0 mm 0.00 in0.0 mm
05:35 PM 46.4°F8.0°C 41.0°F5.0°C 80% 2.3 mph WSW3.7 kmh WSW 3.8 mph6.1 kmh 29.71 in1006.1 mb 0.00 in0.0 mm 0.00 in0.0 mm 0.00 in0.0 mm
05:40 PM 46.4°F8.0°C 41.0°F5.0°C 80% 3.4 mph W5.5 kmh W 8.1 mph13.0 kmh 29.71 in1006.1 mb 0.00 in0.0 mm 0.00 in0.0 mm 0.00 in0.0 mm
05:45 PM 46.6°F8.1°C 41.0°F5.0°C 80% 4.7 mph WSW7.6 kmh WSW 8.1 mph13.0 kmh 29.71 in1006.1 mb 0.00 in0.0 mm 0.00 in0.0 mm 0.00 in0.0 mm
05:50 PM 46.8°F8.2°C 41.0°F5.0°C 80% 5.2 mph WSW8.4 kmh WSW 8.7 mph14.0 kmh 29.71 in1006.1 mb 0.00 in0.0 mm 0.00 in0.0 mm 0.00 in0.0 mm
05:55 PM 46.9°F8.3°C 42.8°F6.0°C 80% 6.1 mph WSW9.8 kmh WSW 8.7 mph14.0 kmh 29.71 in1006.1 mb 0.00 in0.0 mm 0.00 in0.0 mm 0.00 in0.0 mm
06:00 PM 47.1°F8.4°C 42.8°F6.0°C 80% 6.1 mph WSW9.8 kmh WSW 8.1 mph13.0 kmh 29.71 in1006.1 mb 0.00 in0.0 mm 0.00 in0.0 mm 0.00 in0.0 mm
06:05 PM 47.1°F8.4°C 42.8°F6.0°C 80% 5.6 mph WSW9.0 kmh WSW 7.8 mph12.6 kmh 29.71 in1006.1 mb 0.00 in0.0 mm 0.00 in0.0 mm 0.00 in0.0 mm
06:10 PM 47.1°F8.4°C 42.8°F6.0°C 80% 6.1 mph WSW9.8 kmh WSW 9.8 mph15.8 kmh 29.71 in1006.1 mb 0.00 in0.0 mm 0.00 in0.0 mm 0.00 in0.0 mm
06:15 PM 47.1°F8.4°C 42.8°F6.0°C 80% 5.8 mph WSW9.3 kmh WSW 9.8 mph15.8 kmh 29.71 in1006.1 mb 0.00 in0.0 mm 0.00 in0.0 mm 0.00 in0.0 mm
06:20 PM 47.3°F8.5°C 42.8°F6.0°C 80% 5.1 mph WSW8.2 kmh WSW 6.5 mph10.5 kmh 29.71 in1006.1 mb 0.00 in0.0 mm 0.00 in0.0 mm 0.00 in0.0 mm
06:25 PM 47.3°F8.5°C 42.8°F6.0°C 80% 4.8 mph WSW7.7 kmh WSW 6.5 mph10.5 kmh 29.71 in1006.1 mb 0.00 in0.0 mm 0.00 in0.0 mm 0.00 in0.0 mm
06:30 PM 47.3°F8.5°C 42.8°F6.0°C 80% 4.1 mph W6.6 kmh W 6.0 mph9.7 kmh 29.71 in1006.1 mb 0.00 in0.0 mm 0.00 in0.0 mm 0.00 in0.0 mm
06:35 PM 47.3°F8.5°C 42.8°F6.0°C 80% 4.6 mph W7.4 kmh W 7.6 mph12.2 kmh 29.71 in1006.1 mb 0.00 in0.0 mm 0.00 in0.0 mm 0.00 in0.0 mm
06:40 PM 47.3°F8.5°C 42.8°F6.0°C 80% 4.8 mph WSW7.7 kmh WSW 7.6 mph12.2 kmh 29.71 in1006.1 mb 0.00 in0.0 mm 0.00 in0.0 mm 0.00 in0.0 mm
06:45 PM 47.3°F8.5°C 42.8°F6.0°C 80% 3.9 mph WSW6.3 kmh WSW 6.0 mph9.7 kmh 29.71 in1006.1 mb 0.00 in0.0 mm 0.00 in0.0 mm 0.00 in0.0 mm
06:50 PM 47.3°F8.5°C 42.8°F6.0°C 81% 2.9 mph WSW4.7 kmh WSW 4.3 mph6.9 kmh 29.71 in1006.1 mb 0.00 in0.0 mm 0.00 in0.0 mm 0.00 in0.0 mm
06:55 PM 47.3°F8.5°C 42.8°F6.0°C 81% 3.1 mph W5.0 kmh W 5.6 mph9.0 kmh 29.71 in1006.1 mb 0.00 in0.0 mm 0.00 in0.0 mm 0.00 in0.0 mm
07:00 PM 47.3°F8.5°C 42.8°F6.0°C 81% 4.3 mph W6.9 kmh W 7.4 mph11.9 kmh 29.71 in1006.1 mb 0.00 in0.0 mm 0.00 in0.0 mm 0.00 in0.0 mm
07:05 PM 47.3°F8.5°C 42.8°F6.0°C 81% 4.7 mph W7.6 kmh W 7.4 mph11.9 kmh 29.71 in1006.1 mb 0.00 in0.0 mm 0.00 in0.0 mm 0.00 in0.0 mm
07:10 PM 47.1°F8.4°C 42.8°F6.0°C 81% 3.7 mph W6.0 kmh W 7.4 mph11.9 kmh 29.71 in1006.1 mb 0.00 in0.0 mm 0.00 in0.0 mm 0.00 in0.0 mm
07:15 PM 47.1°F8.4°C 42.8°F6.0°C 82% 2.7 mph W4.3 kmh W 4.7 mph7.6 kmh 29.71 in1006.1 mb 0.00 in0.0 mm 0.00 in0.0 mm 0.00 in0.0 mm
07:20 PM 47.1°F8.4°C 42.8°F6.0°C 82% 2.1 mph W3.4 kmh W 3.1 mph5.0 kmh 29.71 in1006.1 mb 0.00 in0.0 mm 0.00 in0.0 mm 0.00 in0.0 mm
07:25 PM 47.1°F8.4°C 42.8°F6.0°C 82% 2.3 mph WNW3.7 kmh WNW 4.3 mph6.9 kmh 29.71 in1006.1 mb 0.00 in0.0 mm 0.00 in0.0 mm 0.00 in0.0 mm
07:30 PM 47.1°F8.4°C 42.8°F6.0°C 82% 2.7 mph WNW4.3 kmh WNW 4.3 mph6.9 kmh 29.71 in1006.1 mb 0.00 in0.0 mm 0.00 in0.0 mm 0.00 in0.0 mm
07:35 PM 47.1°F8.4°C 42.8°F6.0°C 82% 2.2 mph W3.5 kmh W 4.3 mph6.9 kmh 29.71 in1006.1 mb 0.00 in0.0 mm 0.00 in0.0 mm 0.00 in0.0 mm
07:40 PM 47.1°F8.4°C 42.8°F6.0°C 82% 2.0 mph W3.2 kmh W 3.6 mph5.8 kmh 29.71 in1006.1 mb 0.00 in0.0 mm 0.00 in0.0 mm 0.00 in0.0 mm
07:45 PM 47.1°F8.4°C 42.8°F6.0°C 82% 1.6 mph WSW2.6 kmh WSW 3.6 mph5.8 kmh 29.71 in1006.1 mb 0.00 in0.0 mm 0.00 in0.0 mm 0.00 in0.0 mm
07:50 PM 47.1°F8.4°C 42.8°F6.0°C 83% 1.0 mph W1.6 kmh W 1.3 mph2.1 kmh 29.71 in1006.1 mb 0.00 in0.0 mm 0.00 in0.0 mm 0.00 in0.0 mm
07:55 PM 46.9°F8.3°C 42.8°F6.0°C 83% 0.9 mph WNW1.4 kmh WNW 2.5 mph4.0 kmh 29.71 in1006.1 mb 0.00 in0.0 mm 0.00 in0.0 mm 0.00 in0.0 mm
08:00 PM 46.9°F8.3°C 42.8°F6.0°C 83% 0.9 mph W1.4 kmh W 4.3 mph6.9 kmh 29.71 in1006.1 mb 0.06 in1.5 mm 0.07 in1.8 mm 0.06 in1.5 mm
08:05 PM 46.9°F8.3°C 42.8°F6.0°C 83% 1.7 mph W2.7 kmh W 4.3 mph6.9 kmh 29.68 in1005.1 mb 0.06 in1.5 mm 0.00 in0.0 mm 0.06 in1.5 mm
08:10 PM 46.9°F8.3°C 42.8°F6.0°C 83% 2.1 mph WSW3.4 kmh WSW 3.6 mph5.8 kmh 29.68 in1005.1 mb 0.06 in1.5 mm 0.00 in0.0 mm 0.06 in1.5 mm
08:15 PM 46.8°F8.2°C 42.8°F6.0°C 83% 2.3 mph WSW3.7 kmh WSW 3.1 mph5.0 kmh 29.68 in1005.1 mb 0.06 in1.5 mm 0.00 in0.0 mm 0.06 in1.5 mm
08:20 PM 47.1°F8.4°C 42.8°F6.0°C 84% 2.1 mph W3.4 kmh W 3.4 mph5.5 kmh 29.68 in1005.1 mb 0.06 in1.5 mm 0.00 in0.0 mm 0.06 in1.5 mm
08:25 PM 47.1°F8.4°C 42.8°F6.0°C 84% 2.1 mph WNW3.4 kmh WNW 3.4 mph5.5 kmh 29.68 in1005.1 mb 0.06 in1.5 mm 0.00 in0.0 mm 0.06 in1.5 mm
08:30 PM 47.3°F8.5°C 42.8°F6.0°C 84% 2.0 mph WNW3.2 kmh WNW 2.9 mph4.7 kmh 29.68 in1005.1 mb 0.06 in1.5 mm 0.00 in0.0 mm 0.06 in1.5 mm
08:35 PM 47.3°F8.5°C 42.8°F6.0°C 84% 1.8 mph W2.9 kmh W 2.9 mph4.7 kmh 29.68 in1005.1 mb 0.06 in1.5 mm 0.00 in0.0 mm 0.06 in1.5 mm
08:40 PM 47.3°F8.5°C 42.8°F6.0°C 84% 1.3 mph W2.1 kmh W 2.9 mph4.7 kmh 29.68 in1005.1 mb 0.06 in1.5 mm 0.00 in0.0 mm 0.06 in1.5 mm
08:45 PM 47.5°F8.6°C 42.8°F6.0°C 84% 1.0 mph W1.6 kmh W 2.9 mph4.7 kmh 29.68 in1005.1 mb 0.06 in1.5 mm 0.00 in0.0 mm 0.06 in1.5 mm
08:50 PM 47.5°F8.6°C 42.8°F6.0°C 84% 1.4 mph NW2.3 kmh NW 3.1 mph5.0 kmh 29.68 in1005.1 mb 0.06 in1.5 mm 0.00 in0.0 mm 0.06 in1.5 mm
08:55 PM 47.7°F8.7°C 42.8°F6.0°C 84% 1.8 mph WNW2.9 kmh WNW 3.1 mph5.0 kmh 29.68 in1005.1 mb 0.06 in1.5 mm 0.00 in0.0 mm 0.06 in1.5 mm
09:00 PM 47.8°F8.8°C 44.6°F7.0°C 84% 2.6 mph W4.2 kmh W 4.3 mph6.9 kmh 29.68 in1005.1 mb 0.00 in0.0 mm 0.00 in0.0 mm 0.06 in1.5 mm
09:05 PM 48.2°F9.0°C 44.6°F7.0°C 84% 4.1 mph W6.6 kmh W 7.6 mph12.2 kmh 29.68 in1005.1 mb 0.00 in0.0 mm 0.00 in0.0 mm 0.06 in1.5 mm
09:10 PM 48.6°F9.2°C 44.6°F7.0°C 83% 4.8 mph W7.7 kmh W 8.7 mph14.0 kmh 29.68 in1005.1 mb 0.00 in0.0 mm 0.00 in0.0 mm 0.06 in1.5 mm
09:15 PM 48.7°F9.3°C 44.6°F7.0°C 83% 4.9 mph W7.9 kmh W 8.7 mph14.0 kmh 29.68 in1005.1 mb 0.00 in0.0 mm 0.00 in0.0 mm 0.06 in1.5 mm
09:20 PM 49.1°F9.5°C 44.6°F7.0°C 83% 6.1 mph WNW9.8 kmh WNW 12.1 mph19.5 kmh 29.68 in1005.1 mb 0.00 in0.0 mm 0.00 in0.0 mm 0.06 in1.5 mm
09:25 PM 49.5°F9.7°C 44.6°F7.0°C 83% 7.6 mph NW12.2 kmh NW 12.1 mph19.5 kmh 29.68 in1005.1 mb 0.00 in0.0 mm 0.00 in0.0 mm 0.06 in1.5 mm
09:30 PM 50.0°F10.0°C 44.6°F7.0°C 83% 7.4 mph WNW11.9 kmh WNW 12.1 mph19.5 kmh 29.68 in1005.1 mb 0.00 in0.0 mm 0.00 in0.0 mm 0.06 in1.5 mm
09:35 PM 50.0°F10.0°C 44.6°F7.0°C 83% 7.4 mph W11.9 kmh W 10.1 mph16.3 kmh 29.68 in1005.1 mb 0.00 in0.0 mm 0.00 in0.0 mm 0.06 in1.5 mm
09:40 PM 50.4°F10.2°C 46.4°F8.0°C 83% 7.7 mph W12.4 kmh W 10.1 mph16.3 kmh 29.68 in1005.1 mb 0.00 in0.0 mm 0.00 in0.0 mm 0.06 in1.5 mm
09:45 PM 50.4°F10.2°C 46.4°F8.0°C 82% 7.9 mph WSW12.7 kmh WSW 10.3 mph16.6 kmh 29.68 in1005.1 mb 0.00 in0.0 mm 0.00 in0.0 mm 0.06 in1.5 mm
09:50 PM 50.5°F10.3°C 46.4°F8.0°C 82% 8.5 mph W13.7 kmh W 10.3 mph16.6 kmh 29.68 in1005.1 mb 0.00 in0.0 mm 0.00 in0.0 mm 0.06 in1.5 mm
09:55 PM 50.5°F10.3°C 46.4°F8.0°C 82% 7.7 mph W12.4 kmh W 10.7 mph17.2 kmh 29.68 in1005.1 mb 0.00 in0.0 mm 0.00 in0.0 mm 0.06 in1.5 mm
10:00 PM 50.7°F10.4°C 44.6°F7.0°C 81% 8.6 mph W13.8 kmh W 16.6 mph26.7 kmh 29.68 in1005.1 mb 0.00 in0.0 mm 0.00 in0.0 mm 0.06 in1.5 mm
10:05 PM 50.9°F10.5°C 46.4°F8.0°C 81% 10.5 mph W16.9 kmh W 16.6 mph26.7 kmh 29.68 in1005.1 mb 0.00 in0.0 mm 0.00 in0.0 mm 0.06 in1.5 mm
10:10 PM 51.1°F10.6°C 46.4°F8.0°C 81% 9.6 mph WSW15.4 kmh WSW 13.2 mph21.2 kmh 29.68 in1005.1 mb 0.00 in0.0 mm 0.00 in0.0 mm 0.06 in1.5 mm
10:15 PM 50.9°F10.5°C 46.4°F8.0°C 81% 8.1 mph W13.0 kmh W 13.2 mph21.2 kmh 29.68 in1005.1 mb 0.00 in0.0 mm 0.00 in0.0 mm 0.06 in1.5 mm
10:20 PM 50.9°F10.5°C 46.4°F8.0°C 80% 8.0 mph W12.9 kmh W 13.9 mph22.4 kmh 29.65 in1004.1 mb 0.00 in0.0 mm 0.00 in0.0 mm 0.06 in1.5 mm
10:25 PM 50.9°F10.5°C 46.4°F8.0°C 80% 10.0 mph W16.1 kmh W 14.5 mph23.3 kmh 29.65 in1004.1 mb 0.00 in0.0 mm 0.00 in0.0 mm 0.06 in1.5 mm
10:30 PM 51.1°F10.6°C 46.4°F8.0°C 80% 10.5 mph W16.9 kmh W 14.5 mph23.3 kmh 29.65 in1004.1 mb 0.00 in0.0 mm 0.00 in0.0 mm 0.06 in1.5 mm
10:35 PM 51.1°F10.6°C 44.6°F7.0°C 79% 9.7 mph W15.6 kmh W 14.5 mph23.3 kmh 29.65 in1004.1 mb 0.00 in0.0 mm 0.00 in0.0 mm 0.06 in1.5 mm
10:40 PM 51.1°F10.6°C 44.6°F7.0°C 79% 10.1 mph WNW16.3 kmh WNW 13.9 mph22.4 kmh 29.65 in1004.1 mb 0.00 in0.0 mm 0.00 in0.0 mm 0.06 in1.5 mm
10:45 PM 51.1°F10.6°C 44.6°F7.0°C 79% 10.8 mph WNW17.4 kmh WNW 13.9 mph22.4 kmh 29.65 in1004.1 mb 0.00 in0.0 mm 0.00 in0.0 mm 0.06 in1.5 mm
10:50 PM 51.3°F10.7°C 44.6°F7.0°C 79% 10.7 mph WNW17.2 kmh WNW 17.7 mph28.5 kmh 29.65 in1004.1 mb 0.00 in0.0 mm 0.00 in0.0 mm 0.06 in1.5 mm
10:55 PM 51.3°F10.7°C 44.6°F7.0°C 78% 11.1 mph W17.9 kmh W 17.7 mph28.5 kmh 29.65 in1004.1 mb 0.00 in0.0 mm 0.00 in0.0 mm 0.06 in1.5 mm
11:00 PM 51.3°F10.7°C 44.6°F7.0°C 78% 9.2 mph WSW14.8 kmh WSW 17.0 mph27.4 kmh 29.65 in1004.1 mb 0.00 in0.0 mm 0.00 in0.0 mm 0.06 in1.5 mm
11:05 PM 51.1°F10.6°C 44.6°F7.0°C 78% 6.1 mph WSW9.8 kmh WSW 11.2 mph18.0 kmh 29.65 in1004.1 mb 0.00 in0.0 mm 0.00 in0.0 mm 0.06 in1.5 mm
11:10 PM 51.1°F10.6°C 44.6°F7.0°C 78% 6.1 mph WSW9.8 kmh WSW 11.2 mph18.0 kmh 29.65 in1004.1 mb 0.00 in0.0 mm 0.00 in0.0 mm 0.06 in1.5 mm
11:15 PM 51.1°F10.6°C 44.6°F7.0°C 78% 6.3 mph WSW10.1 kmh WSW 9.8 mph15.8 kmh 29.65 in1004.1 mb 0.00 in0.0 mm 0.00 in0.0 mm 0.06 in1.5 mm
11:20 PM 51.1°F10.6°C 44.6°F7.0°C 78% 6.5 mph WSW10.5 kmh WSW 10.5 mph16.9 kmh 29.65 in1004.1 mb 0.00 in0.0 mm 0.00 in0.0 mm 0.06 in1.5 mm
11:25 PM 50.7°F10.4°C 44.6°F7.0°C 78% 6.8 mph WSW10.9 kmh WSW 10.5 mph16.9 kmh 29.65 in1004.1 mb 0.00 in0.0 mm 0.00 in0.0 mm 0.06 in1.5 mm
11:30 PM 50.5°F10.3°C 44.6°F7.0°C 79% 7.3 mph W11.7 kmh W 12.8 mph20.6 kmh 29.65 in1004.1 mb 0.00 in0.0 mm 0.00 in0.0 mm 0.06 in1.5 mm
11:35 PM 50.5°F10.3°C 44.6°F7.0°C 79% 7.7 mph WSW12.4 kmh WSW 12.8 mph20.6 kmh 29.65 in1004.1 mb 0.00 in0.0 mm 0.00 in0.0 mm 0.06 in1.5 mm
11:40 PM 50.4°F10.2°C 44.6°F7.0°C 79% 7.7 mph WSW12.4 kmh WSW 11.0 mph17.7 kmh 29.65 in1004.1 mb 0.00 in0.0 mm 0.00 in0.0 mm 0.06 in1.5 mm
11:45 PM 50.4°F10.2°C 44.6°F7.0°C 79% 6.8 mph WSW10.9 kmh WSW 10.1 mph16.3 kmh 29.65 in1004.1 mb 0.00 in0.0 mm 0.00 in0.0 mm 0.06 in1.5 mm
11:50 PM 50.4°F10.2°C 44.6°F7.0°C 79% 7.2 mph WSW11.6 kmh WSW 13.2 mph21.2 kmh 29.65 in1004.1 mb 0.00 in0.0 mm 0.00 in0.0 mm 0.06 in1.5 mm
11:55 PM 50.4°F10.2°C 44.6°F7.0°C 79% 7.6 mph WSW12.2 kmh WSW 13.2 mph21.2 kmh 29.65 in1004.1 mb 0.00 in0.0 mm 0.00 in0.0 mm 0.06 in1.5 mm